Time;durP1;ratioP1;P1;durP2;ratioP2;P2;SDS_P1;SDS_P2;PMS_P1;PMS_P2;Temp;Humidity;BMP_temperature;BMP_pressure;BME280_temperature;BME280_humidity;BME280_pressure;Samples;Min_cycle;Max_cycle;Signal;HPM_P1;HPM_P2
2021/12/10 00:00:35;;;;;;;6.80;1.80;;;;;;;1.65;100.00;97506.78;5027174;28;19928;-71
2021/12/10 00:03:04;;;;;;;7.32;1.85;;;;;;;1.60;100.00;97498.50;5035613;28;20486;-72
2021/12/10 00:05:34;;;;;;;5.28;1.83;;;;;;;1.45;100.00;97485.16;5029570;28;20064;-71
2021/12/10 00:08:00;;;;;;;8.85;2.00;;;;;;;1.30;100.00;97466.41;5030688;28;20395;-71
2021/12/10 00:10:31;;;;;;;5.63;1.45;;;;;;;1.43;100.00;97482.66;5030915;28;20044;-71
2021/12/10 00:12:56;;;;;;;8.32;1.98;;;;;;;1.31;100.00;97468.91;5030525;28;20032;-72
2021/12/10 00:15:24;;;;;;;6.57;1.67;;;;;;;1.34;100.00;97477.53;5023806;28;20033;-71
2021/12/10 00:17:51;;;;;;;6.70;1.88;;;;;;;1.30;100.00;97479.75;5009032;28;20876;-71
2021/12/10 00:20:19;;;;;;;7.25;1.42;;;;;;;1.33;100.00;97466.06;5024333;28;20120;-71
2021/12/10 00:22:54;;;;;;;2.85;1.35;;;;;;;1.16;99.58;97443.22;5031198;28;20701;-71
2021/12/10 00:25:23;;;;;;;10.55;1.73;;;;;;;1.37;98.29;97462.03;5021036;28;20060;-73
2021/12/10 00:27:51;;;;;;;4.07;1.30;;;;;;;1.25;98.31;97455.47;5030407;28;20510;-74
2021/12/10 00:30:25;;;;;;;7.85;1.20;;;;;;;1.31;97.98;97452.13;5029581;28;20091;-74
2021/12/10 00:33:03;;;;;;;8.35;1.65;;;;;;;1.20;99.00;97439.19;5029732;28;20029;-74
2021/12/10 00:35:32;;;;;;;3.08;1.45;;;;;;;1.03;99.33;97439.31;5029454;28;20028;-74
2021/12/10 00:37:58;;;;;;;3.27;1.30;;;;;;;1.07;99.00;97437.97;5030123;28;20751;-74
2021/12/10 00:40:26;;;;;;;4.32;1.50;;;;;;;0.86;99.07;97406.66;5029826;28;20070;-74
2021/12/10 00:42:52;;;;;;;5.25;1.42;;;;;;;0.86;99.29;97397.81;5011700;28;20036;-73
2021/12/10 00:45:18;;;;;;;3.08;1.50;;;;;;;1.01;98.67;97430.66;5007643;28;20118;-74
2021/12/10 00:47:44;;;;;;;6.03;1.60;;;;;;;0.99;98.82;97422.00;5028618;28;20030;-74
2021/12/10 00:50:15;;;;;;;5.43;1.90;;;;;;;0.88;99.71;97417.91;5029644;28;20064;-74
2021/12/10 00:52:42;;;;;;;7.50;2.13;;;;;;;0.88;99.95;97415.25;5029888;28;20696;-73
2021/12/10 00:55:08;;;;;;;3.17;1.40;;;;;;;0.75;99.74;97390.22;5030148;28;20028;-71
2021/12/10 00:57:34;;;;;;;4.57;1.15;;;;;;;0.90;99.05;97412.44;5031526;28;20068;-71
2021/12/10 00:59:59;;;;;;;5.32;1.50;;;;;;;0.85;98.84;97401.47;5013260;28;20442;-71
2021/12/10 01:02:25;;;;;;;8.77;1.60;;;;;;;0.72;99.20;97374.63;5030172;28;20040;-71
2021/12/10 01:04:55;;;;;;;5.82;1.50;;;;;;;0.76;99.67;97390.06;5032483;28;20399;-71
2021/12/10 01:07:28;;;;;;;4.68;1.40;;;;;;;0.73;99.81;97400.22;5030246;28;20087;-71
2021/12/10 01:09:56;;;;;;;10.18;1.83;;;;;;;0.47;100.00;97369.41;5029099;28;20056;-72
2021/12/10 01:12:34;;;;;;;6.47;1.52;;;;;;;0.56;100.00;97384.34;5033205;28;20034;-71
2021/12/10 01:23:55;;;;;;;4.10;1.23;;;;;;;0.49;98.65;97359.44;5036452;28;20029;-71
2021/12/10 01:29:14;;;;;;;6.00;1.52;;;;;;;0.46;98.67;97353.66;5035069;28;20084;-72
2021/12/10 01:31:41;;;;;;;4.95;1.50;;;;;;;0.48;99.09;97363.13;5033881;28;20022;-71
2021/12/10 01:34:07;;;;;;;4.85;1.90;;;;;;;0.35;99.51;97347.72;5015754;28;20037;-73
2021/12/10 01:36:34;;;;;;;7.93;1.73;;;;;;;0.39;100.00;97350.84;5031398;28;20091;-74
2021/12/10 01:39:00;;;;;;;7.10;1.70;;;;;;;0.31;100.00;97343.72;5033100;28;20033;-74
2021/12/10 01:41:33;;;;;;;5.25;2.00;;;;;;;0.38;100.00;97343.88;5032767;28;20403;-74
2021/12/10 01:44:03;;;;;;;4.90;1.30;;;;;;;0.31;100.00;97338.41;5032939;28;20029;-73
2021/12/10 01:46:32;;;;;;;9.38;1.30;;;;;;;0.32;100.00;97333.94;5017073;28;20048;-73
2021/12/10 01:49:04;;;;;;;8.23;1.30;;;;;;;0.26;100.00;97330.13;5034377;28;20037;-74
2021/12/10 01:51:36;;;;;;;3.80;1.25;;;;;;;0.24;100.00;97324.19;5014376;28;20079;-74
2021/12/10 01:54:08;;;;;;;8.82;1.55;;;;;;;0.02;100.00;97301.00;5032894;28;20068;-74
2021/12/10 01:56:36;;;;;;;4.88;1.58;;;;;;;0.08;100.00;97298.50;5030238;28;20116;-74
2021/12/10 01:59:05;;;;;;;4.90;1.30;;;;;;;0.02;100.00;97288.53;5024961;28;20037;-74
2021/12/10 02:01:41;;;;;;;2.72;1.40;;;;;;;0.20;100.00;97298.91;5032913;28;20064;-74
2021/12/10 02:04:08;;;;;;;8.45;1.50;;;;;;;0.30;100.00;97283.56;5013911;28;20067;-74
2021/12/10 02:06:34;;;;;;;8.18;1.35;;;;;;;0.33;99.24;97277.06;5030345;28;20037;-74
2021/12/10 02:09:00;;;;;;;8.02;1.33;;;;;;;0.33;98.79;97266.44;5014566;28;20121;-74
2021/12/10 02:11:25;;;;;;;6.03;1.08;;;;;;;0.21;98.20;97237.59;5014532;28;20116;-73
2021/12/10 02:13:50;;;;;;;2.97;0.90;;;;;;;0.38;97.37;97261.41;5031765;28;20055;-74
2021/12/10 02:16:17;;;;;;;7.00;1.02;;;;;;;0.42;97.43;97252.09;5030561;28;20036;-74
2021/12/10 02:18:43;;;;;;;3.70;1.17;;;;;;;0.38;97.72;97250.78;5031283;28;20025;-74
2021/12/10 02:21:08;;;;;;;3.03;0.90;;;;;;;0.32;97.04;97240.84;5014349;28;20030;-74
2021/12/10 02:23:37;;;;;;;4.43;1.10;;;;;;;0.25;97.76;97231.91;5031816;28;20372;-73
2021/12/10 02:26:05;;;;;;;4.00;1.50;;;;;;;0.12;98.40;97235.97;5014952;28;20033;-71
2021/12/10 02:28:31;;;;;;;6.13;1.33;;;;;;;0.06;98.79;97217.25;5028447;28;20472;-71
2021/12/10 02:30:57;;;;;;;5.35;1.40;;;;;;;0.10;99.31;97230.00;5014724;28;20029;-71
2021/12/10 02:33:23;;;;;;;3.35;1.23;;;;;;;0.05;99.74;97232.34;5029478;28;20021;-71
2021/12/10 02:35:49;;;;;;;1.60;0.90;;;;;;;-0.02;100.00;97226.09;5031831;28;20104;-71
2021/12/10 02:38:17;;;;;;;3.38;1.35;;;;;;;-0.12;100.00;97222.84;5021670;28;20030;-71
2021/12/10 02:40:43;;;;;;;3.05;1.10;;;;;;;-0.41;100.00;97196.91;5036548;28;20112;-71
2021/12/10 02:43:11;;;;;;;11.40;2.15;;;;;;;-0.43;100.00;97207.69;5031251;28;20056;-71
2021/12/10 02:45:38;;;;;;;7.25;1.50;;;;;;;-0.46;100.00;97198.25;5025657;28;20075;-71
2021/12/10 02:48:05;;;;;;;3.60;1.40;;;;;;;-0.62;100.00;97170.94;5010182;28;20057;-71
2021/12/10 02:50:33;;;;;;;5.43;1.55;;;;;;;-0.35;100.00;97189.06;5028798;28;20045;-71
2021/12/10 02:52:58;;;;;;;7.97;1.52;;;;;;;-0.33;100.00;97192.38;5013193;28;20021;-71
2021/12/10 02:55:24;;;;;;;4.72;1.20;;;;;;;-0.43;100.00;97170.50;5030834;28;20327;-71
2021/12/10 02:57:54;;;;;;;6.18;1.25;;;;;;;-0.47;100.00;97162.06;5013500;28;20036;-71
2021/12/10 03:00:26;;;;;;;9.40;2.47;;;;;;;-0.55;100.00;97147.97;5032576;28;20064;-71
2021/12/10 03:02:51;;;;;;;5.63;1.90;;;;;;;-0.37;100.00;97156.50;5029883;28;20029;-71
2021/12/10 03:05:17;;;;;;;8.15;1.85;;;;;;;-0.43;100.00;97141.28;5013833;28;20036;-70
2021/12/10 03:07:43;;;;;;;4.82;1.70;;;;;;;-0.59;100.00;97154.66;5031219;28;20025;-71
2021/12/10 03:10:13;;;;;;;5.57;1.45;;;;;;;-0.77;100.00;97137.13;5030832;28;20026;-71
2021/12/10 03:12:39;;;;;;;7.43;1.80;;;;;;;-1.04;100.00;97129.63;5030951;28;20044;-71
2021/12/10 03:15:07;;;;;;;5.78;1.42;;;;;;;-1.06;100.00;97139.59;5024921;28;20634;-71
2021/12/10 03:17:33;;;;;;;4.25;1.52;;;;;;;-1.18;100.00;97134.66;5031190;28;20026;-71
2021/12/10 03:20:01;;;;;;;6.25;1.50;;;;;;;-1.14;100.00;97114.72;5009459;28;20046;-71
2021/12/10 03:22:26;;;;;;;6.97;1.67;;;;;;;-1.10;100.00;97115.22;5022183;28;20107;-71
2021/12/10 03:24:52;;;;;;;10.95;2.13;;;;;;;-0.92;100.00;97122.94;5011754;28;20121;-71
2021/12/10 03:27:20;;;;;;;2.97;1.45;;;;;;;-1.09;100.00;97102.78;5031068;28;20513;-71
2021/12/10 03:29:47;;;;;;;4.20;1.88;;;;;;;-0.78;100.00;97119.56;5030183;28;20059;-71
2021/12/10 03:32:18;;;;;;;4.97;1.42;;;;;;;-1.05;100.00;97104.06;5030150;28;20092;-71
2021/12/10 03:34:44;;;;;;;6.25;1.70;;;;;;;-1.05;100.00;97117.34;5030277;28;20030;-71
2021/12/10 03:37:10;;;;;;;8.50;2.00;;;;;;;-1.19;100.00;97111.75;5031234;28;20060;-71
2021/12/10 03:39:36;;;;;;;7.13;1.50;;;;;;;-1.47;100.00;97097.25;5030634;28;20032;-71
2021/12/10 03:42:04;;;;;;;3.53;1.52;;;;;;;-1.32;100.00;97117.59;5037491;28;20035;-72
2021/12/10 03:44:29;;;;;;;4.78;1.75;;;;;;;-1.34;100.00;97101.03;5055676;28;20034;-72
2021/12/10 03:46:56;;;;;;;6.38;1.85;;;;;;;-1.21;100.00;97113.75;5055040;28;20036;-71
2021/12/10 03:49:21;;;;;;;6.30;1.45;;;;;;;-1.05;100.00;97102.25;5056553;28;20018;-71
2021/12/10 03:51:47;;;;;;;6.90;2.55;;;;;;;-0.97;100.00;97088.97;5055307;28;20287;-71
2021/12/10 03:54:16;;;;;;;2.85;1.38;;;;;;;-0.86;100.00;97095.72;5037635;28;20090;-71
2021/12/10 03:56:42;;;;;;;7.18;1.40;;;;;;;-0.92;100.00;97075.16;5036780;28;20029;-71
2021/12/10 03:59:12;;;;;;;4.13;1.40;;;;;;;-0.89;100.00;97093.41;5047107;28;20040;-71
2021/12/10 04:01:42;;;;;;;6.50;1.50;;;;;;;-1.01;100.00;97081.50;5044601;28;20025;-71
2021/12/10 04:04:12;;;;;;;4.68;1.83;;;;;;;-0.99;100.00;97079.53;5012495;28;20035;-71
2021/12/10 04:06:40;;;;;;;8.50;1.92;;;;;;;-1.08;100.00;97072.56;5031566;28;20059;-73
2021/12/10 04:09:06;;;;;;;4.40;1.90;;;;;;;-1.07;100.00;97068.91;5029821;28;20124;-74
2021/12/10 04:11:33;;;;;;;5.32;1.73;;;;;;;-1.02;100.00;97054.16;5027630;28;20036;-71
2021/12/10 04:13:59;;;;;;;9.90;1.85;;;;;;;-1.01;100.00;97047.81;5027094;28;20525;-70
2021/12/10 04:16:26;;;;;;;5.90;1.83;;;;;;;-0.95;100.00;97038.34;5030002;28;20033;-71
2021/12/10 04:18:53;;;;;;;3.20;1.52;;;;;;;-0.81;100.00;97039.41;5027578;28;20036;-71
2021/12/10 04:21:19;;;;;;;7.32;1.63;;;;;;;-0.75;100.00;97034.25;5029713;28;20022;-71
2021/12/10 04:23:45;;;;;;;5.93;1.38;;;;;;;-0.91;100.00;97005.97;5029412;28;20132;-71
2021/12/10 04:26:14;;;;;;;8.43;1.65;;;;;;;-0.82;100.00;97009.38;5029807;28;20068;-71
2021/12/10 04:28:39;;;;;;;3.30;1.40;;;;;;;-0.77;100.00;97004.38;5030960;28;20021;-72
2021/12/10 04:31:05;;;;;;;3.00;1.30;;;;;;;-0.70;100.00;96997.38;5010960;28;20075;-74
2021/12/10 04:33:30;;;;;;;7.03;1.73;;;;;;;-0.76;100.00;96994.56;5026116;28;20028;-72
2021/12/10 04:35:59;;;;;;;3.35;1.50;;;;;;;-0.73;100.00;97003.03;5008857;28;20079;-74
2021/12/10 04:38:28;;;;;;;5.63;1.60;;;;;;;-0.57;100.00;97001.28;5030002;28;20049;-73
2021/12/10 04:40:56;;;;;;;7.70;1.77;;;;;;;-0.45;99.65;96986.53;5042810;28;20029;-74
2021/12/10 04:43:23;;;;;;;2.07;1.00;;;;;;;-0.42;99.40;96990.69;5040418;28;20021;-78
2021/12/10 04:45:52;;;;;;;5.80;1.55;;;;;;;-0.43;98.71;96995.16;5026885;28;20017;-78
2021/12/10 04:48:17;;;;;;;4.25;1.10;;;;;;;-0.54;98.80;96983.13;5010766;28;20033;-75
2021/12/10 04:50:43;;;;;;;5.30;1.40;;;;;;;-0.64;98.24;96973.75;5028326;28;20030;-76
2021/12/10 04:53:09;;;;;;;5.63;1.50;;;;;;;-0.47;97.41;96994.72;5010896;28;20033;-75
2021/12/10 04:55:35;;;;;;;7.85;1.55;;;;;;;-0.64;98.27;96981.72;5022319;28;20035;-74
2021/12/10 04:58:02;;;;;;;6.78;1.60;;;;;;;-0.69;99.68;96999.00;5023083;28;20079;-75
2021/12/10 05:00:37;;;;;;;4.75;1.58;;;;;;;-0.92;100.00;96987.56;5010482;28;20087;-74
2021/12/10 05:03:05;;;;;;;3.97;1.42;;;;;;;-1.11;100.00;96973.72;5012169;28;20021;-75
2021/12/10 05:05:31;;;;;;;7.03;1.80;;;;;;;-1.08;100.00;96963.78;5011116;28;20036;-74
2021/12/10 05:07:57;;;;;;;4.78;1.58;;;;;;;-1.01;100.00;96938.19;5030207;28;20068;-74
2021/12/10 05:10:22;;;;;;;9.20;1.60;;;;;;;-0.76;99.14;96968.88;5029138;28;20049;-74
2021/12/10 05:12:48;;;;;;;6.00;1.98;;;;;;;-1.00;99.75;96929.22;5030308;28;20576;-73
2021/12/10 05:15:18;;;;;;;4.55;1.52;;;;;;;-0.85;100.00;96943.38;5029575;28;20025;-73
2021/12/10 05:17:43;;;;;;;4.75;1.65;;;;;;;-0.97;100.00;96963.34;5039214;28;20075;-73
2021/12/10 05:20:15;;;;;;;7.68;1.48;;;;;;;-1.01;100.00;96959.44;5034015;28;20030;-74
2021/12/10 05:22:43;;;;;;;5.20;1.70;;;;;;;-1.32;100.00;96941.69;5027409;28;20090;-71
2021/12/10 05:25:09;;;;;;;8.05;1.48;;;;;;;-1.52;100.00;96932.50;5041312;28;20305;-76
2021/12/10 05:27:35;;;;;;;6.53;1.92;;;;;;;-1.64;100.00;96945.34;5019640;28;20032;-73
2021/12/10 05:30:01;;;;;;;6.45;1.85;;;;;;;-1.95;100.00;96918.78;5038988;28;20029;-74
2021/12/10 05:32:27;;;;;;;7.82;2.30;;;;;;;-1.84;100.00;96924.53;5037475;28;20026;-73
2021/12/10 05:34:54;;;;;;;6.40;1.90;;;;;;;-1.93;100.00;96940.66;5037692;28;20029;-75
2021/12/10 05:37:20;;;;;;;6.47;1.77;;;;;;;-1.78;100.00;96938.94;5038738;28;20021;-76
2021/12/10 05:39:45;;;;;;;7.15;1.98;;;;;;;-1.88;100.00;96925.06;5040209;28;20079;-75
2021/12/10 05:42:10;;;;;;;6.70;2.00;;;;;;;-1.90;100.00;96911.97;5040557;28;20018;-74
2021/12/10 05:44:38;;;;;;;9.75;2.75;;;;;;;-1.94;100.00;96909.81;5039218;28;20402;-71
2021/12/10 05:47:05;;;;;;;9.07;2.45;;;;;;;-1.86;100.00;96921.25;5041214;28;20029;-73
2021/12/10 05:49:30;;;;;;;3.60;1.88;;;;;;;-1.76;100.00;96926.31;5025456;28;20021;-71
2021/12/10 05:51:56;;;;;;;5.47;2.42;;;;;;;-1.87;100.00;96910.78;5041400;28;20517;-75
2021/12/10 05:54:22;;;;;;;6.40;2.33;;;;;;;-1.80;100.00;96906.47;5040801;28;20026;-70
2021/12/10 05:56:49;;;;;;;11.10;2.35;;;;;;;-1.73;100.00;96902.09;5039635;28;20032;-70
2021/12/10 05:59:15;;;;;;;5.80;2.17;;;;;;;-1.64;100.00;96910.88;5045181;28;21628;-71
2021/12/10 06:01:40;;;;;;;7.88;2.15;;;;;;;-1.83;100.00;96899.69;5038267;28;20028;-70
2021/12/10 06:04:06;;;;;;;7.00;2.13;;;;;;;-1.82;100.00;96908.47;5047930;28;20488;-71
2021/12/10 06:06:32;;;;;;;4.53;1.52;;;;;;;-2.04;100.00;96894.16;5041670;28;20093;-70
2021/12/10 06:09:00;;;;;;;6.90;1.92;;;;;;;-2.04;100.00;96908.22;5039727;28;20029;-71
2021/12/10 06:11:29;;;;;;;3.92;2.17;;;;;;;-1.92;100.00;96886.63;5049553;28;20025;-69
2021/12/10 06:13:56;;;;;;;8.27;2.90;;;;;;;-1.91;100.00;96899.72;5036903;28;20057;-69
2021/12/10 06:16:21;;;;;;;10.35;2.40;;;;;;;-2.05;100.00;96893.28;5045713;28;20021;-71
2021/12/10 06:18:47;;;;;;;7.13;2.33;;;;;;;-2.30;100.00;96876.66;5060169;28;20021;-70
2021/12/10 06:21:13;;;;;;;7.35;2.80;;;;;;;-2.16;100.00;96896.31;5051296;28;20035;-70
2021/12/10 06:23:40;;;;;;;10.93;3.55;;;;;;;-2.16;100.00;96888.38;5052009;28;20029;-70
2021/12/10 06:26:05;;;;;;;12.48;4.50;;;;;;;-2.18;100.00;96884.25;5051080;28;20577;-70
2021/12/10 06:28:32;;;;;;;18.70;5.35;;;;;;;-2.12;100.00;96860.56;5049670;28;20029;-71
2021/12/10 06:30:58;;;;;;;9.88;3.42;;;;;;;-1.86;100.00;96854.13;5062522;28;20021;-71
2021/12/10 06:33:28;;;;;;;6.82;3.22;;;;;;;-1.66;100.00;96858.00;5048169;28;20093;-71
2021/12/10 06:35:55;;;;;;;11.20;3.10;;;;;;;-1.65;100.00;96841.13;5036463;28;20100;-71
2021/12/10 06:38:22;;;;;;;7.30;3.55;;;;;;;-1.26;100.00;96834.84;5033096;28;20514;-70
2021/12/10 06:40:49;;;;;;;6.43;3.00;;;;;;;-0.99;100.00;96824.72;5033410;28;20025;-70
2021/12/10 06:43:15;;;;;;;13.43;4.30;;;;;;;-0.92;100.00;96826.47;5042330;28;20063;-70
2021/12/10 06:45:42;;;;;;;7.72;3.90;;;;;;;-0.83;99.63;96821.09;5039258;28;20069;-70
2021/12/10 06:48:08;;;;;;;7.13;3.28;;;;;;;-0.75;98.77;96816.53;5033132;28;20552;-71
2021/12/10 06:50:38;;;;;;;12.25;3.70;;;;;;;-0.78;98.21;96794.81;5032130;28;20140;-70
2021/12/10 06:53:04;;;;;;;10.80;3.83;;;;;;;-0.76;97.73;96787.47;5006983;28;20056;-70
2021/12/10 06:55:31;;;;;;;14.80;4.60;;;;;;;-0.72;97.03;96789.59;5014326;28;20507;-70
2021/12/10 06:57:57;;;;;;;10.15;4.00;;;;;;;-0.68;96.87;96788.25;5032878;28;20029;-70
2021/12/10 07:00:47;;;;;;;11.77;4.97;;;;;;;-0.62;97.06;96793.84;5034013;28;20052;-70
2021/12/10 07:03:18;;;;;;;12.60;4.88;;;;;;;-0.61;96.64;96790.16;5021861;28;20095;-71
2021/12/10 07:05:44;;;;;;;11.43;5.03;;;;;;;-0.69;97.43;96778.59;5054952;28;20059;-68
2021/12/10 07:08:11;;;;;;;15.50;4.30;;;;;;;-0.76;97.81;96772.41;5052802;28;20088;-69
2021/12/10 07:10:37;;;;;;;8.95;3.83;;;;;;;-0.69;97.18;96761.84;5049481;28;20374;-70
2021/12/10 07:13:06;;;;;;;9.80;4.15;;;;;;;-0.63;96.68;96763.78;5046193;28;20021;-69
2021/12/10 07:15:31;;;;;;;;;;;;;;;-0.57;96.51;96760.41;5054399;28;20021;-69
2021/12/10 07:17:57;;;;;;;11.85;4.03;;;;;;;-0.54;95.84;96753.91;5052322;28;19916;-70
2021/12/10 07:20:24;;;;;;;8.82;4.40;;;;;;;-0.54;95.31;96748.59;5052744;28;20061;-70
2021/12/10 07:22:50;;;;;;;8.07;3.97;;;;;;;-0.41;95.16;96759.38;5056027;28;20064;-69
2021/12/10 07:25:17;;;;;;;8.05;4.25;;;;;;;-0.41;94.56;96751.41;5053965;28;20040;-69
2021/12/10 07:27:43;;;;;;;8.85;3.75;;;;;;;-0.48;94.42;96716.78;5042551;28;20025;-70
2021/12/10 07:30:09;;;;;;;10.77;4.05;;;;;;;-0.21;94.06;96738.38;5034092;28;20117;-70
2021/12/10 07:32:35;;;;;;;16.98;3.85;;;;;;;-0.17;93.41;96725.53;5020175;28;20135;-69
2021/12/10 07:35:03;;;;;;;8.25;3.90;;;;;;;-0.14;92.98;96711.88;5023457;28;20731;-70
2021/12/10 07:37:28;;;;;;;10.68;3.28;;;;;;;-0.12;93.11;96694.72;5026149;28;20060;-72
2021/12/10 07:39:54;;;;;;;7.03;3.60;;;;;;;-0.04;92.43;96707.09;5032921;28;20108;-71
2021/12/10 07:42:19;;;;;;;10.00;3.92;;;;;;;0.02;91.80;96701.00;5034572;28;20576;-72
2021/12/10 07:44:45;;;;;;;8.73;3.72;;;;;;;0.09;91.14;96696.59;5033328;28;20037;-72
2021/12/10 07:47:13;;;;;;;11.45;3.90;;;;;;;0.15;90.25;96697.66;5015862;28;20091;-72
2021/12/10 07:49:42;;;;;;;8.70;3.65;;;;;;;0.27;90.12;96709.44;5042730;28;20033;-72
2021/12/10 07:52:16;;;;;;;8.95;3.58;;;;;;;0.35;89.25;96697.88;5025169;28;20036;-71
2021/12/10 07:54:46;;;;;;;11.70;4.18;;;;;;;0.43;89.38;96708.38;5013485;28;20052;-72
2021/12/10 07:57:13;;;;;;;8.35;4.03;;;;;;;0.32;89.62;96690.28;5035045;28;20025;-73
2021/12/10 07:59:39;;;;;;;12.00;4.18;;;;;;;0.46;89.74;96705.31;5022909;28;20029;-72
2021/12/10 08:02:05;;;;;;;8.75;3.65;;;;;;;0.49;89.42;96706.78;5034173;28;20069;-72
2021/12/10 08:04:30;;;;;;;10.13;4.00;;;;;;;0.41;89.81;96683.78;5019672;28;20053;-72
2021/12/10 08:06:55;;;;;;;8.13;4.00;;;;;;;0.51;89.61;96700.25;5045003;28;20037;-72
2021/12/10 08:09:21;;;;;;;6.93;3.97;;;;;;;0.34;89.09;96670.44;5050968;28;20026;-70
2021/12/10 08:11:46;;;;;;;9.25;3.90;;;;;;;0.36;88.46;96675.56;5056392;28;20128;-72
2021/12/10 08:14:12;;;;;;;6.93;3.15;;;;;;;0.35;85.87;96668.59;5033779;28;20020;-72
2021/12/10 08:16:39;;;;;;;7.35;2.78;;;;;;;0.43;83.05;96663.16;5035461;28;20038;-74
2021/12/10 08:19:05;;;;;;;5.72;2.70;;;;;;;0.54;80.12;96644.00;5051012;28;20032;-73
2021/12/10 08:21:30;;;;;;;10.05;3.30;;;;;;;0.87;77.22;96662.03;5053676;28;20040;-73
2021/12/10 08:23:57;;;;;;;3.55;2.00;;;;;;;0.93;76.08;96666.56;5049573;28;20097;-74
2021/12/10 08:26:23;;;;;;;5.78;2.45;;;;;;;0.86;76.54;96637.28;5038046;28;20033;-71
2021/12/10 08:28:49;;;;;;;7.25;2.80;;;;;;;0.88;76.05;96650.38;5052612;28;20502;-71
2021/12/10 08:31:16;;;;;;;9.73;2.97;;;;;;;1.08;76.88;96677.94;5035440;28;20049;-73
2021/12/10 08:33:44;;;;;;;9.18;2.80;;;;;;;1.02;78.14;96668.09;5053503;28;20025;-73
2021/12/10 08:36:11;;;;;;;8.02;3.35;;;;;;;1.15;79.60;96685.94;5020799;28;20033;-72
2021/12/10 08:38:37;;;;;;;9.27;3.10;;;;;;;1.13;80.31;96676.50;5034901;28;20168;-73
2021/12/10 08:41:11;;;;;;;7.18;2.78;;;;;;;1.21;79.81;96676.38;5027734;28;20022;-74
2021/12/10 08:43:36;;;;;;;6.88;2.83;;;;;;;1.27;79.56;96694.22;5022416;28;20033;-71
2021/12/10 08:46:04;;;;;;;5.22;2.75;;;;;;;1.36;78.41;96687.69;5048790;28;20029;-73
2021/12/10 08:48:33;;;;;;;10.88;3.28;;;;;;;1.39;77.31;96675.84;5052732;28;20572;-73
2021/12/10 08:51:01;;;;;;;7.93;2.90;;;;;;;1.37;77.24;96692.03;5053443;28;20030;-73
2021/12/10 08:53:27;;;;;;;8.20;2.75;;;;;;;1.57;75.98;96688.63;5053366;28;20036;-74
2021/12/10 08:55:55;;;;;;;6.50;2.88;;;;;;;1.67;75.14;96691.75;5052009;28;20021;-75
2021/12/10 08:58:21;;;;;;;6.93;2.92;;;;;;;1.88;73.91;96696.13;5035248;28;20043;-74
2021/12/10 09:00:52;;;;;;;6.45;3.03;;;;;;;1.91;73.38;96683.25;5033182;28;20037;-74
2021/12/10 09:03:18;;;;;;;8.23;2.97;;;;;;;1.86;72.22;96677.69;5037486;28;20025;-70
2021/12/10 09:05:44;;;;;;;6.95;2.88;;;;;;;1.77;72.82;96673.53;5051149;28;20048;-71
2021/12/10 09:08:09;;;;;;;5.75;2.78;;;;;;;1.98;72.58;96688.56;5051938;28;20085;-71
2021/12/10 09:10:39;;;;;;;8.27;2.88;;;;;;;1.95;73.25;96660.47;5052129;28;20045;-72
2021/12/10 09:13:12;;;;;;;8.30;2.75;;;;;;;2.09;72.41;96674.63;5051359;28;20049;-77
2021/12/10 09:15:38;;;;;;;6.68;2.20;;;;;;;2.17;71.79;96673.63;5051808;28;20029;-76
2021/12/10 09:18:06;;;;;;;7.43;3.05;;;;;;;1.92;72.19;96668.88;5023721;28;20041;-74
2021/12/10 09:20:38;;;;;;;9.80;3.00;;;;;;;1.93;71.87;96662.50;5012827;28;20024;-73
2021/12/10 09:23:08;;;;;;;6.20;2.83;;;;;;;1.91;72.17;96675.25;5028237;28;20121;-75
2021/12/10 09:25:35;;;;;;;8.20;3.05;;;;;;;1.64;72.02;96630.84;5029225;28;20042;-74
2021/12/10 09:28:01;;;;;;;5.70;2.10;;;;;;;1.84;71.08;96662.91;5036778;28;20112;-73
2021/12/10 09:30:30;;;;;;;6.75;2.35;;;;;;;1.66;71.24;96653.63;5036440;28;20565;-73
2021/12/10 09:32:55;;;;;;;;;;;;;;;1.72;71.77;96646.66;5027755;28;20063;-72
2021/12/10 09:35:26;;;;;;;4.65;1.85;;;;;;;1.63;71.90;96631.88;5049507;28;19908;-71
2021/12/10 09:37:51;;;;;;;4.32;1.85;;;;;;;1.72;71.05;96639.47;5042099;28;20117;-73
2021/12/10 09:40:24;;;;;;;4.32;1.77;;;;;;;1.77;71.39;96646.06;5045716;28;20029;-71
2021/12/10 09:42:50;;;;;;;4.82;1.60;;;;;;;1.75;71.34;96632.91;5050564;28;20076;-72
2021/12/10 09:45:19;;;;;;;7.40;2.40;;;;;;;1.79;71.49;96636.84;5050749;28;20041;-71
2021/12/10 09:47:45;;;;;;;;;;;;;;;1.73;70.40;96633.16;5051394;28;20026;-71
2021/12/10 09:50:14;;;;;;;4.60;1.75;;;;;;;1.71;70.57;96643.19;5047981;28;19952;-72
2021/12/10 09:52:40;;;;;;;4.60;1.95;;;;;;;1.78;70.67;96624.50;5042798;28;20033;-72
2021/12/10 09:55:08;;;;;;;3.10;1.50;;;;;;;1.68;70.65;96610.78;5037187;28;20040;-72
2021/12/10 09:57:36;;;;;;;3.78;1.77;;;;;;;1.63;70.21;96603.38;5032428;28;20117;-72
2021/12/10 10:00:10;;;;;;;5.70;1.50;;;;;;;1.75;70.11;96620.41;5032066;28;20043;-72
2021/12/10 10:02:35;;;;;;;4.32;1.58;;;;;;;1.81;70.73;96618.81;5030654;28;20029;-72
2021/12/10 10:05:04;;;;;;;3.95;1.52;;;;;;;1.84;69.76;96610.41;5034832;28;20099;-72
2021/12/10 10:07:30;;;;;;;4.65;1.88;;;;;;;1.89;69.62;96615.13;5040252;28;20029;-72
2021/12/10 10:10:04;;;;;;;5.38;1.75;;;;;;;1.92;69.47;96601.41;5033521;28;20094;-72
2021/12/10 10:12:32;;;;;;;3.65;1.45;;;;;;;2.01;68.88;96594.00;5032900;28;20390;-72
2021/12/10 10:15:03;;;;;;;4.45;1.42;;;;;;;1.91;69.24;96573.91;5033033;28;20467;-72
2021/12/10 10:17:29;;;;;;;5.00;1.50;;;;;;;2.12;68.86;96575.56;5037732;28;20052;-72
2021/12/10 10:19:54;;;;;;;5.35;1.45;;;;;;;2.04;67.94;96561.59;5038234;28;20029;-72
2021/12/10 10:22:25;;;;;;;3.30;1.40;;;;;;;2.28;67.89;96570.81;5030042;28;20046;-72
2021/12/10 10:24:52;;;;;;;5.95;1.50;;;;;;;2.25;67.84;96584.56;5002585;28;20041;-72
2021/12/10 10:27:25;;;;;;;4.47;1.38;;;;;;;2.24;67.97;96578.44;5008384;28;20033;-72
2021/12/10 10:29:55;;;;;;;4.53;1.10;;;;;;;2.27;68.09;96567.34;5032334;28;20047;-72
2021/12/10 10:32:25;;;;;;;2.70;1.20;;;;;;;2.28;67.34;96552.16;5033528;28;20034;-72
2021/12/10 10:34:57;;;;;;;5.13;2.38;;;;;;;2.16;68.53;96542.09;5015172;28;20131;-71
2021/12/10 10:37:24;;;;;;;5.18;2.08;;;;;;;2.28;67.99;96544.16;5016532;28;20617;-72
2021/12/10 10:39:49;;;;;;;3.75;1.98;;;;;;;2.33;67.55;96536.34;5032674;28;20036;-72
2021/12/10 10:42:20;;;;;;;4.88;1.90;;;;;;;2.26;67.79;96531.03;5032883;28;20029;-72
2021/12/10 10:44:47;;;;;;;4.13;1.73;;;;;;;2.37;67.62;96534.91;5033278;28;20045;-72
2021/12/10 10:47:13;;;;;;;6.07;2.05;;;;;;;2.39;67.84;96519.53;5032611;28;20118;-72
2021/12/10 10:49:46;;;;;;;6.88;2.22;;;;;;;2.50;67.49;96534.88;5013234;28;20038;-71
2021/12/10 10:52:15;;;;;;;4.78;1.73;;;;;;;2.51;66.21;96530.38;5014800;28;20179;-73
2021/12/10 10:54:42;;;;;;;6.03;1.38;;;;;;;2.54;64.86;96525.44;5033431;28;20082;-72
2021/12/10 10:57:25;;;;;;;4.68;1.42;;;;;;;2.46;65.43;96509.63;5031955;28;20040;-72
2021/12/10 10:59:57;;;;;;;3.30;1.10;;;;;;;2.47;65.17;96497.94;5032042;28;20033;-73
2021/12/10 11:02:26;;;;;;;2.25;1.05;;;;;;;2.55;64.09;96502.25;5029691;28;20537;-72
2021/12/10 11:04:53;;;;;;;1.42;1.02;;;;;;;2.53;63.75;96493.63;5033100;28;20029;-72
2021/12/10 11:07:25;;;;;;;5.60;1.63;;;;;;;2.45;64.40;96469.81;5030989;28;20033;-72
2021/12/10 11:09:59;;;;;;;4.20;1.42;;;;;;;2.62;64.63;96495.03;5015732;28;20037;-72
2021/12/10 11:12:30;;;;;;;2.88;1.00;;;;;;;2.69;63.00;96490.47;5032677;28;20037;-72
2021/12/10 11:14:57;;;;;;;2.25;0.82;;;;;;;2.77;61.51;96482.25;5033317;28;20037;-72
2021/12/10 11:17:35;;;;;;;2.75;1.08;;;;;;;2.82;62.69;96477.09;5037152;28;20041;-72
2021/12/10 11:20:05;;;;;;;2.33;0.85;;;;;;;2.90;62.67;96496.56;5033980;28;20091;-72
2021/12/10 11:22:31;;;;;;;6.60;1.92;;;;;;;3.00;62.52;96488.94;5030064;28;20471;-72
2021/12/10 11:25:10;;;;;;;6.38;2.25;;;;;;;2.90;63.78;96494.72;5010632;28;20045;-72
2021/12/10 11:27:38;;;;;;;4.40;1.30;;;;;;;2.96;62.47;96509.06;5016510;28;20028;-72
2021/12/10 11:30:15;;;;;;;2.33;1.15;;;;;;;2.94;61.81;96497.81;5034939;28;20033;-72
2021/12/10 11:32:43;;;;;;;5.00;1.25;;;;;;;3.06;62.29;96480.06;5030688;28;20037;-72
2021/12/10 11:35:31;;;;;;;2.55;1.42;;;;;;;2.97;62.02;96455.47;5032022;28;20021;-72
2021/12/10 11:38:14;;;;;;;5.78;1.05;;;;;;;2.96;61.71;96474.34;5030120;28;20037;-72
2021/12/10 11:40:49;;;;;;;2.72;1.08;;;;;;;3.00;62.56;96497.75;5030606;28;20038;-71
2021/12/10 11:46:31;;;;;;;5.57;1.63;;;;;;;3.17;61.32;96484.75;5029965;28;20531;-72
2021/12/10 11:49:23;;;;;;;3.42;1.00;;;;;;;2.92;61.37;96484.66;5026633;28;20523;-72
2021/12/10 11:52:09;;;;;;;3.00;0.80;;;;;;;2.85;62.08;96483.84;5029411;28;20060;-72